Sycamore, Illinois
Current Conditions -  °F | °C
As of 7:15 AM on Tuesday 21 Oct 2014 (Local Time) from KDKB Reporting Station
Overcast Overcast  
Wind Chill: 38°   Ceiling: 4400
Heat Index: 42°   Visibility: 10mi
Dew Point: 38°   Wind: 6mph
Humidity: 88%   Direction: 350°N
Pressure: 30.14"   Gusts: NA
Location:  41.99°N, 88.68°W
Report Text: KDKB 211215Z AUTO 35005KT 10SM OVC044 05/04 A3014 RMK AO2 T00540036
Loading
Personal Weather Stations






























Interactive Weather Map New forecast layout! Learn more

10-Day Weather Forecast

Advertisements
Track Severe Weather on mobile